sensor_id;sensor_type;location;lat;lon;timestamp;P1;durP1;ratioP1;P2;durP2;ratioP2
7737;SDS011;29398;45.328;5.558;2023-11-21T00:00:16;17.92;;;14.77;;
7737;SDS011;29398;45.328;5.558;2023-11-21T00:01:18;19.15;;;14.15;;
7737;SDS011;29398;45.328;5.558;2023-11-21T00:02:20;18.77;;;14.90;;
7737;SDS011;29398;45.328;5.558;2023-11-21T00:03:21;16.73;;;13.65;;
7737;SDS011;29398;45.328;5.558;2023-11-21T00:04:24;20.23;;;15.38;;
7737;SDS011;29398;45.328;5.558;2023-11-21T00:05:25;18.65;;;13.88;;
7737;SDS011;29398;45.328;5.558;2023-11-21T00:06:27;19.90;;;14.85;;
7737;SDS011;29398;45.328;5.558;2023-11-21T00:07:30;19.23;;;14.13;;
7737;SDS011;29398;45.328;5.558;2023-11-21T00:08:32;21.13;;;14.55;;
7737;SDS011;29398;45.328;5.558;2023-11-21T00:09:33;18.55;;;13.90;;
7737;SDS011;29398;45.328;5.558;2023-11-21T00:10:36;19.15;;;14.00;;
7737;SDS011;29398;45.328;5.558;2023-11-21T00:11:38;18.35;;;13.70;;
7737;SDS011;29398;45.328;5.558;2023-11-21T00:12:41;21.30;;;14.85;;
7737;SDS011;29398;45.328;5.558;2023-11-21T00:13:42;18.38;;;13.52;;
7737;SDS011;29398;45.328;5.558;2023-11-21T00:14:45;18.17;;;13.25;;
7737;SDS011;29398;45.328;5.558;2023-11-21T00:15:48;15.70;;;12.05;;
7737;SDS011;29398;45.328;5.558;2023-11-21T00:16:50;19.35;;;13.15;;
7737;SDS011;29398;45.328;5.558;2023-11-21T00:17:51;17.17;;;12.30;;
7737;SDS011;29398;45.328;5.558;2023-11-21T00:18:53;17.23;;;12.38;;
7737;SDS011;29398;45.328;5.558;2023-11-21T00:19:54;17.42;;;12.35;;
7737;SDS011;29398;45.328;5.558;2023-11-21T00:20:55;18.88;;;12.10;;
7737;SDS011;29398;45.328;5.558;2023-11-21T00:21:59;17.75;;;11.95;;
7737;SDS011;29398;45.328;5.558;2023-11-21T00:23:00;16.67;;;11.73;;
7737;SDS011;29398;45.328;5.558;2023-11-21T00:24:02;14.90;;;9.98;;
7737;SDS011;29398;45.328;5.558;2023-11-21T00:25:04;16.50;;;10.65;;
7737;SDS011;29398;45.328;5.558;2023-11-21T00:26:09;14.75;;;10.35;;
7737;SDS011;29398;45.328;5.558;2023-11-21T00:27:10;16.40;;;10.32;;
7737;SDS011;29398;45.328;5.558;2023-11-21T00:28:11;14.57;;;9.55;;
7737;SDS011;29398;45.328;5.558;2023-11-21T00:29:13;15.57;;;10.05;;
7737;SDS011;29398;45.328;5.558;2023-11-21T00:30:17;12.35;;;9.10;;
7737;SDS011;29398;45.328;5.558;2023-11-21T00:31:21;11.80;;;8.52;;
7737;SDS011;29398;45.328;5.558;2023-11-21T00:32:22;13.18;;;8.50;;
7737;SDS011;29398;45.328;5.558;2023-11-21T00:33:23;11.93;;;7.63;;
7737;SDS011;29398;45.328;5.558;2023-11-21T00:34:27;9.65;;;6.93;;
7737;SDS011;29398;45.328;5.558;2023-11-21T00:35:28;12.80;;;6.65;;
7737;SDS011;29398;45.328;5.558;2023-11-21T00:36:29;11.70;;;6.68;;
7737;SDS011;29398;45.328;5.558;2023-11-21T00:37:32;15.10;;;6.22;;
7737;SDS011;29398;45.328;5.558;2023-11-21T00:38:33;11.98;;;6.13;;
7737;SDS011;29398;45.328;5.558;2023-11-21T00:39:34;8.05;;;5.40;;
7737;SDS011;29398;45.328;5.558;2023-11-21T00:40:36;8.07;;;5.15;;
7737;SDS011;29398;45.328;5.558;2023-11-21T00:41:38;8.25;;;5.05;;
7737;SDS011;29398;45.328;5.558;2023-11-21T00:42:39;9.05;;;5.45;;
7737;SDS011;29398;45.328;5.558;2023-11-21T00:43:41;9.10;;;5.35;;
7737;SDS011;29398;45.328;5.558;2023-11-21T00:44:42;8.73;;;4.97;;
7737;SDS011;29398;45.328;5.558;2023-11-21T00:45:44;8.68;;;4.90;;
7737;SDS011;29398;45.328;5.558;2023-11-21T00:46:48;13.77;;;5.88;;
7737;SDS011;29398;45.328;5.558;2023-11-21T00:47:50;13.27;;;5.90;;
7737;SDS011;29398;45.328;5.558;2023-11-21T00:48:52;10.40;;;5.75;;
7737;SDS011;29398;45.328;5.558;2023-11-21T00:49:54;10.50;;;5.53;;
7737;SDS011;29398;45.328;5.558;2023-11-21T00:50:55;9.82;;;5.68;;
7737;SDS011;29398;45.328;5.558;2023-11-21T00:51:57;10.45;;;6.15;;
7737;SDS011;29398;45.328;5.558;2023-11-21T00:53:00;11.30;;;5.90;;
7737;SDS011;29398;45.328;5.558;2023-11-21T00:54:03;11.15;;;5.70;;
7737;SDS011;29398;45.328;5.558;2023-11-21T00:55:05;9.02;;;5.57;;
7737;SDS011;29398;45.328;5.558;2023-11-21T00:56:08;12.80;;;5.50;;
7737;SDS011;29398;45.328;5.558;2023-11-21T00:57:09;11.02;;;5.43;;
7737;SDS011;29398;45.328;5.558;2023-11-21T00:58:12;11.93;;;5.78;;
7737;SDS011;29398;45.328;5.558;2023-11-21T00:59:13;10.23;;;5.85;;
7737;SDS011;29398;45.328;5.558;2023-11-21T01:00:16;8.60;;;5.03;;
7737;SDS011;29398;45.328;5.558;2023-11-21T01:01:18;10.40;;;5.28;;
7737;SDS011;29398;45.328;5.558;2023-11-21T01:02:21;10.50;;;5.72;;
7737;SDS011;29398;45.328;5.558;2023-11-21T01:03:23;9.88;;;5.35;;
7737;SDS011;29398;45.328;5.558;2023-11-21T01:04:25;7.38;;;5.05;;
7737;SDS011;29398;45.328;5.558;2023-11-21T01:05:26;14.50;;;5.60;;
7737;SDS011;29398;45.328;5.558;2023-11-21T01:06:27;9.85;;;5.47;;
7737;SDS011;29398;45.328;5.558;2023-11-21T01:07:30;10.38;;;5.35;;
7737;SDS011;29398;45.328;5.558;2023-11-21T01:08:31;9.10;;;5.22;;
7737;SDS011;29398;45.328;5.558;2023-11-21T01:09:33;10.05;;;5.22;;
7737;SDS011;29398;45.328;5.558;2023-11-21T01:10:34;11.40;;;4.90;;
7737;SDS011;29398;45.328;5.558;2023-11-21T01:11:36;12.18;;;5.03;;
7737;SDS011;29398;45.328;5.558;2023-11-21T01:12:38;8.32;;;4.20;;
7737;SDS011;29398;45.328;5.558;2023-11-21T01:13:40;8.07;;;4.90;;
7737;SDS011;29398;45.328;5.558;2023-11-21T01:14:42;10.68;;;4.72;;
7737;SDS011;29398;45.328;5.558;2023-11-21T01:15:43;9.02;;;4.68;;
7737;SDS011;29398;45.328;5.558;2023-11-21T01:16:45;7.18;;;4.82;;
7737;SDS011;29398;45.328;5.558;2023-11-21T01:17:48;11.38;;;4.90;;
7737;SDS011;29398;45.328;5.558;2023-11-21T01:18:50;8.18;;;4.50;;
7737;SDS011;29398;45.328;5.558;2023-11-21T01:19:51;10.23;;;4.50;;
7737;SDS011;29398;45.328;5.558;2023-11-21T01:20:53;9.02;;;4.40;;
7737;SDS011;29398;45.328;5.558;2023-11-21T01:21:54;10.70;;;4.63;;
7737;SDS011;29398;45.328;5.558;2023-11-21T01:22:58;9.50;;;4.82;;
7737;SDS011;29398;45.328;5.558;2023-11-21T01:23:59;7.00;;;4.22;;
7737;SDS011;29398;45.328;5.558;2023-11-21T01:25:01;5.55;;;3.88;;
7737;SDS011;29398;45.328;5.558;2023-11-21T01:26:04;7.40;;;4.25;;
7737;SDS011;29398;45.328;5.558;2023-11-21T01:27:10;11.13;;;4.75;;
7737;SDS011;29398;45.328;5.558;2023-11-21T01:28:11;8.75;;;4.63;;
7737;SDS011;29398;45.328;5.558;2023-11-21T01:29:13;8.48;;;4.35;;
7737;SDS011;29398;45.328;5.558;2023-11-21T01:30:15;8.77;;;4.55;;
7737;SDS011;29398;45.328;5.558;2023-11-21T01:31:17;8.65;;;4.38;;
7737;SDS011;29398;45.328;5.558;2023-11-21T01:32:18;9.73;;;4.55;;
7737;SDS011;29398;45.328;5.558;2023-11-21T01:33:21;7.85;;;4.32;;
7737;SDS011;29398;45.328;5.558;2023-11-21T01:34:26;5.25;;;3.70;;
7737;SDS011;29398;45.328;5.558;2023-11-21T01:35:28;11.05;;;4.57;;
7737;SDS011;29398;45.328;5.558;2023-11-21T01:36:30;9.38;;;4.60;;
7737;SDS011;29398;45.328;5.558;2023-11-21T01:37:33;8.32;;;4.28;;
7737;SDS011;29398;45.328;5.558;2023-11-21T01:38:34;8.32;;;4.35;;
7737;SDS011;29398;45.328;5.558;2023-11-21T01:39:36;11.90;;;5.03;;
7737;SDS011;29398;45.328;5.558;2023-11-21T01:40:39;9.48;;;4.68;;
7737;SDS011;29398;45.328;5.558;2023-11-21T01:41:41;7.47;;;4.53;;
7737;SDS011;29398;45.328;5.558;2023-11-21T01:42:44;11.80;;;5.00;;
7737;SDS011;29398;45.328;5.558;2023-11-21T01:43:47;10.98;;;5.80;;
7737;SDS011;29398;45.328;5.558;2023-11-21T01:44:48;13.02;;;6.38;;
7737;SDS011;29398;45.328;5.558;2023-11-21T01:45:50;11.65;;;6.10;;
7737;SDS011;29398;45.328;5.558;2023-11-21T01:46:51;12.43;;;5.88;;
7737;SDS011;29398;45.328;5.558;2023-11-21T01:47:54;9.07;;;6.03;;
7737;SDS011;29398;45.328;5.558;2023-11-21T01:48:56;9.60;;;5.78;;
7737;SDS011;29398;45.328;5.558;2023-11-21T01:49:58;11.05;;;5.55;;
7737;SDS011;29398;45.328;5.558;2023-11-21T01:51:00;12.32;;;6.00;;
7737;SDS011;29398;45.328;5.558;2023-11-21T01:52:03;12.60;;;5.90;;
7737;SDS011;29398;45.328;5.558;2023-11-21T01:53:05;8.10;;;5.10;;
7737;SDS011;29398;45.328;5.558;2023-11-21T01:54:07;9.82;;;5.32;;
7737;SDS011;29398;45.328;5.558;2023-11-21T01:55:08;9.52;;;4.95;;
7737;SDS011;29398;45.328;5.558;2023-11-21T01:56:12;9.77;;;5.10;;
7737;SDS011;29398;45.328;5.558;2023-11-21T01:57:14;6.18;;;4.20;;
7737;SDS011;29398;45.328;5.558;2023-11-21T01:58:16;8.23;;;5.07;;
7737;SDS011;29398;45.328;5.558;2023-11-21T01:59:17;8.75;;;4.88;;
7737;SDS011;29398;45.328;5.558;2023-11-21T02:00:21;7.70;;;4.22;;
7737;SDS011;29398;45.328;5.558;2023-11-21T02:01:23;7.55;;;4.57;;
7737;SDS011;29398;45.328;5.558;2023-11-21T02:02:27;7.38;;;4.40;;
7737;SDS011;29398;45.328;5.558;2023-11-21T02:03:28;7.68;;;4.10;;
7737;SDS011;29398;45.328;5.558;2023-11-21T02:04:32;7.43;;;4.38;;
7737;SDS011;29398;45.328;5.558;2023-11-21T02:05:34;7.70;;;4.15;;
7737;SDS011;29398;45.328;5.558;2023-11-21T02:06:36;8.05;;;4.20;;
7737;SDS011;29398;45.328;5.558;2023-11-21T02:07:37;8.85;;;4.30;;
7737;SDS011;29398;45.328;5.558;2023-11-21T02:08:39;7.13;;;4.03;;
7737;SDS011;29398;45.328;5.558;2023-11-21T02:09:42;9.68;;;4.60;;
7737;SDS011;29398;45.328;5.558;2023-11-21T02:10:45;7.35;;;4.45;;
7737;SDS011;29398;45.328;5.558;2023-11-21T02:11:47;8.15;;;3.97;;
7737;SDS011;29398;45.328;5.558;2023-11-21T02:12:50;6.07;;;3.92;;
7737;SDS011;29398;45.328;5.558;2023-11-21T02:13:52;10.02;;;3.97;;
7737;SDS011;29398;45.328;5.558;2023-11-21T02:14:54;10.27;;;4.35;;
7737;SDS011;29398;45.328;5.558;2023-11-21T02:15:56;8.32;;;3.60;;
7737;SDS011;29398;45.328;5.558;2023-11-21T02:16:58;7.55;;;4.13;;
7737;SDS011;29398;45.328;5.558;2023-11-21T02:18:01;9.05;;;4.38;;
7737;SDS011;29398;45.328;5.558;2023-11-21T02:19:03;7.07;;;3.47;;
7737;SDS011;29398;45.328;5.558;2023-11-21T02:20:11;7.10;;;3.97;;
7737;SDS011;29398;45.328;5.558;2023-11-21T02:21:16;8.80;;;3.92;;
7737;SDS011;29398;45.328;5.558;2023-11-21T02:22:19;8.43;;;4.05;;
7737;SDS011;29398;45.328;5.558;2023-11-21T02:23:22;10.43;;;3.80;;
7737;SDS011;29398;45.328;5.558;2023-11-21T02:24:29;12.40;;;4.00;;
7737;SDS011;29398;45.328;5.558;2023-11-21T02:25:30;6.45;;;3.78;;
7737;SDS011;29398;45.328;5.558;2023-11-21T02:26:33;10.05;;;4.32;;
7737;SDS011;29398;45.328;5.558;2023-11-21T02:27:34;6.70;;;3.75;;
7737;SDS011;29398;45.328;5.558;2023-11-21T02:28:36;6.78;;;3.70;;
7737;SDS011;29398;45.328;5.558;2023-11-21T02:29:39;5.57;;;3.35;;
7737;SDS011;29398;45.328;5.558;2023-11-21T02:30:40;4.97;;;3.17;;
7737;SDS011;29398;45.328;5.558;2023-11-21T02:31:43;8.45;;;3.20;;
7737;SDS011;29398;45.328;5.558;2023-11-21T02:32:48;9.30;;;3.42;;
7737;SDS011;29398;45.328;5.558;2023-11-21T02:33:49;4.43;;;2.92;;
7737;SDS011;29398;45.328;5.558;2023-11-21T02:34:51;6.78;;;2.92;;
7737;SDS011;29398;45.328;5.558;2023-11-21T02:35:52;6.05;;;2.97;;
7737;SDS011;29398;45.328;5.558;2023-11-21T02:36:55;5.40;;;3.20;;
7737;SDS011;29398;45.328;5.558;2023-11-21T02:37:57;6.55;;;3.00;;
7737;SDS011;29398;45.328;5.558;2023-11-21T02:39:00;5.68;;;3.17;;
7737;SDS011;29398;45.328;5.558;2023-11-21T02:40:03;4.13;;;2.33;;
7737;SDS011;29398;45.328;5.558;2023-11-21T02:41:06;6.68;;;3.20;;
7737;SDS011;29398;45.328;5.558;2023-11-21T02:42:08;8.82;;;3.20;;
7737;SDS011;29398;45.328;5.558;2023-11-21T02:43:09;5.90;;;2.92;;
7737;SDS011;29398;45.328;5.558;2023-11-21T02:44:11;5.63;;;3.28;;
7737;SDS011;29398;45.328;5.558;2023-11-21T02:45:12;6.28;;;3.28;;
7737;SDS011;29398;45.328;5.558;2023-11-21T02:46:16;6.53;;;3.33;;
7737;SDS011;29398;45.328;5.558;2023-11-21T02:47:18;6.20;;;3.30;;
7737;SDS011;29398;45.328;5.558;2023-11-21T02:48:19;7.10;;;3.25;;
7737;SDS011;29398;45.328;5.558;2023-11-21T02:49:24;5.60;;;3.10;;
7737;SDS011;29398;45.328;5.558;2023-11-21T02:50:28;8.40;;;3.65;;
7737;SDS011;29398;45.328;5.558;2023-11-21T02:51:30;8.15;;;3.28;;
7737;SDS011;29398;45.328;5.558;2023-11-21T02:52:31;6.78;;;3.70;;
7737;SDS011;29398;45.328;5.558;2023-11-21T02:53:34;6.65;;;3.47;;
7737;SDS011;29398;45.328;5.558;2023-11-21T02:54:37;6.18;;;3.40;;
7737;SDS011;29398;45.328;5.558;2023-11-21T02:55:39;5.55;;;3.42;;
7737;SDS011;29398;45.328;5.558;2023-11-21T02:56:40;7.82;;;3.25;;
7737;SDS011;29398;45.328;5.558;2023-11-21T02:57:43;9.13;;;3.20;;
7737;SDS011;29398;45.328;5.558;2023-11-21T02:58:44;6.72;;;3.25;;
7737;SDS011;29398;45.328;5.558;2023-11-21T02:59:46;8.93;;;3.75;;
7737;SDS011;29398;45.328;5.558;2023-11-21T03:00:47;6.22;;;3.53;;
7737;SDS011;29398;45.328;5.558;2023-11-21T03:01:50;9.88;;;5.32;;
7737;SDS011;29398;45.328;5.558;2023-11-21T03:02:51;7.65;;;5.05;;
7737;SDS011;29398;45.328;5.558;2023-11-21T03:03:54;6.80;;;5.07;;
7737;SDS011;29398;45.328;5.558;2023-11-21T03:04:56;8.90;;;5.20;;
7737;SDS011;29398;45.328;5.558;2023-11-21T03:05:59;9.27;;;5.40;;
7737;SDS011;29398;45.328;5.558;2023-11-21T03:06:59;10.77;;;4.82;;
7737;SDS011;29398;45.328;5.558;2023-11-21T03:08:00;6.32;;;4.55;;
7737;SDS011;29398;45.328;5.558;2023-11-21T03:09:03;8.65;;;4.65;;
7737;SDS011;29398;45.328;5.558;2023-11-21T03:10:06;7.20;;;4.28;;
7737;SDS011;29398;45.328;5.558;2023-11-21T03:11:11;11.18;;;5.03;;
7737;SDS011;29398;45.328;5.558;2023-11-21T03:12:13;8.45;;;4.45;;
7737;SDS011;29398;45.328;5.558;2023-11-21T03:13:16;6.68;;;4.53;;
7737;SDS011;29398;45.328;5.558;2023-11-21T03:14:17;11.50;;;4.80;;
7737;SDS011;29398;45.328;5.558;2023-11-21T03:15:19;9.60;;;5.50;;
7737;SDS011;29398;45.328;5.558;2023-11-21T03:16:20;9.65;;;4.85;;
7737;SDS011;29398;45.328;5.558;2023-11-21T03:17:22;9.13;;;5.32;;
7737;SDS011;29398;45.328;5.558;2023-11-21T03:18:25;10.48;;;5.45;;
7737;SDS011;29398;45.328;5.558;2023-11-21T03:19:26;8.88;;;5.90;;
7737;SDS011;29398;45.328;5.558;2023-11-21T03:20:27;15.05;;;6.32;;
7737;SDS011;29398;45.328;5.558;2023-11-21T03:21:28;12.70;;;6.60;;
7737;SDS011;29398;45.328;5.558;2023-11-21T03:22:30;8.80;;;5.35;;
7737;SDS011;29398;45.328;5.558;2023-11-21T03:23:32;11.15;;;6.05;;
7737;SDS011;29398;45.328;5.558;2023-11-21T03:24:34;10.95;;;6.40;;
7737;SDS011;29398;45.328;5.558;2023-11-21T03:25:37;12.38;;;6.80;;
7737;SDS011;29398;45.328;5.558;2023-11-21T03:26:38;14.18;;;6.13;;
7737;SDS011;29398;45.328;5.558;2023-11-21T03:27:40;9.88;;;6.32;;
7737;SDS011;29398;45.328;5.558;2023-11-21T03:28:41;10.30;;;5.75;;
7737;SDS011;29398;45.328;5.558;2023-11-21T03:29:43;9.45;;;5.65;;
7737;SDS011;29398;45.328;5.558;2023-11-21T03:30:45;11.52;;;6.43;;
7737;SDS011;29398;45.328;5.558;2023-11-21T03:31:47;13.50;;;5.72;;
7737;SDS011;29398;45.328;5.558;2023-11-21T03:32:49;7.10;;;5.32;;
7737;SDS011;29398;45.328;5.558;2023-11-21T03:33:51;13.60;;;5.75;;
7737;SDS011;29398;45.328;5.558;2023-11-21T03:34:54;9.50;;;5.70;;
7737;SDS011;29398;45.328;5.558;2023-11-21T03:35:56;12.40;;;5.60;;
7737;SDS011;29398;45.328;5.558;2023-11-21T03:36:59;9.38;;;5.68;;
7737;SDS011;29398;45.328;5.558;2023-11-21T03:38:00;12.45;;;5.80;;
7737;SDS011;29398;45.328;5.558;2023-11-21T03:39:03;8.20;;;5.25;;
7737;SDS011;29398;45.328;5.558;2023-11-21T03:40:06;10.32;;;5.22;;
7737;SDS011;29398;45.328;5.558;2023-11-21T03:41:10;16.15;;;6.00;;
7737;SDS011;29398;45.328;5.558;2023-11-21T03:42:12;9.82;;;5.65;;
7737;SDS011;29398;45.328;5.558;2023-11-21T03:43:13;11.05;;;5.13;;
7737;SDS011;29398;45.328;5.558;2023-11-21T03:44:15;9.32;;;5.28;;
7737;SDS011;29398;45.328;5.558;2023-11-21T03:45:18;11.65;;;5.57;;
7737;SDS011;29398;45.328;5.558;2023-11-21T03:46:20;9.60;;;5.32;;
7737;SDS011;29398;45.328;5.558;2023-11-21T03:47:21;8.25;;;4.80;;
7737;SDS011;29398;45.328;5.558;2023-11-21T03:48:23;9.25;;;5.32;;
7737;SDS011;29398;45.328;5.558;2023-11-21T03:49:24;8.32;;;5.35;;
7737;SDS011;29398;45.328;5.558;2023-11-21T03:50:26;10.77;;;5.60;;
7737;SDS011;29398;45.328;5.558;2023-11-21T03:51:28;7.85;;;5.25;;
7737;SDS011;29398;45.328;5.558;2023-11-21T03:52:30;11.43;;;5.43;;
7737;SDS011;29398;45.328;5.558;2023-11-21T03:53:31;8.02;;;5.03;;
7737;SDS011;29398;45.328;5.558;2023-11-21T03:54:34;9.73;;;5.10;;
7737;SDS011;29398;45.328;5.558;2023-11-21T03:55:35;8.95;;;4.95;;
7737;SDS011;29398;45.328;5.558;2023-11-21T03:56:39;11.05;;;5.65;;
7737;SDS011;29398;45.328;5.558;2023-11-21T03:57:40;8.88;;;4.55;;
7737;SDS011;29398;45.328;5.558;2023-11-21T03:58:42;11.15;;;4.82;;
7737;SDS011;29398;45.328;5.558;2023-11-21T03:59:43;7.40;;;4.70;;
7737;SDS011;29398;45.328;5.558;2023-11-21T04:00:46;8.38;;;4.65;;
7737;SDS011;29398;45.328;5.558;2023-11-21T04:01:47;9.55;;;4.88;;
7737;SDS011;29398;45.328;5.558;2023-11-21T04:02:49;7.28;;;4.18;;
7737;SDS011;29398;45.328;5.558;2023-11-21T04:03:52;11.45;;;4.85;;
7737;SDS011;29398;45.328;5.558;2023-11-21T04:04:54;9.00;;;4.82;;
7737;SDS011;29398;45.328;5.558;2023-11-21T04:05:55;6.40;;;4.38;;
7737;SDS011;29398;45.328;5.558;2023-11-21T04:06:57;9.45;;;4.32;;
7737;SDS011;29398;45.328;5.558;2023-11-21T04:07:58;7.80;;;4.40;;
7737;SDS011;29398;45.328;5.558;2023-11-21T04:09:00;10.27;;;4.88;;
7737;SDS011;29398;45.328;5.558;2023-11-21T04:10:02;9.32;;;4.57;;
7737;SDS011;29398;45.328;5.558;2023-11-21T04:11:04;6.65;;;4.13;;
7737;SDS011;29398;45.328;5.558;2023-11-21T04:12:07;7.40;;;4.25;;
7737;SDS011;29398;45.328;5.558;2023-11-21T04:13:10;6.72;;;4.20;;
7737;SDS011;29398;45.328;5.558;2023-11-21T04:14:11;5.65;;;4.22;;
7737;SDS011;29398;45.328;5.558;2023-11-21T04:15:13;8.60;;;4.57;;
7737;SDS011;29398;45.328;5.558;2023-11-21T04:16:14;7.00;;;4.28;;
7737;SDS011;29398;45.328;5.558;2023-11-21T04:17:17;8.13;;;4.25;;
7737;SDS011;29398;45.328;5.558;2023-11-21T04:18:18;6.30;;;4.50;;
7737;SDS011;29398;45.328;5.558;2023-11-21T04:19:20;8.15;;;4.78;;
7737;SDS011;29398;45.328;5.558;2023-11-21T04:20:21;7.28;;;4.18;;
7737;SDS011;29398;45.328;5.558;2023-11-21T04:21:23;8.32;;;4.55;;
7737;SDS011;29398;45.328;5.558;2023-11-21T04:22:24;6.93;;;4.20;;
7737;SDS011;29398;45.328;5.558;2023-11-21T04:23:27;9.02;;;4.60;;
7737;SDS011;29398;45.328;5.558;2023-11-21T04:24:30;8.82;;;4.32;;
7737;SDS011;29398;45.328;5.558;2023-11-21T04:25:31;8.48;;;4.35;;
7737;SDS011;29398;45.328;5.558;2023-11-21T04:26:33;10.20;;;4.63;;
7737;SDS011;29398;45.328;5.558;2023-11-21T04:27:35;9.35;;;4.80;;
7737;SDS011;29398;45.328;5.558;2023-11-21T04:28:37;7.47;;;4.70;;
7737;SDS011;29398;45.328;5.558;2023-11-21T04:29:39;9.00;;;4.90;;
7737;SDS011;29398;45.328;5.558;2023-11-21T04:30:41;12.25;;;4.82;;
7737;SDS011;29398;45.328;5.558;2023-11-21T04:31:42;8.32;;;5.78;;
7737;SDS011;29398;45.328;5.558;2023-11-21T04:32:44;9.18;;;4.22;;
7737;SDS011;29398;45.328;5.558;2023-11-21T04:33:45;9.65;;;5.65;;
7737;SDS011;29398;45.328;5.558;2023-11-21T04:34:46;10.32;;;5.30;;
7737;SDS011;29398;45.328;5.558;2023-11-21T04:35:48;10.40;;;5.30;;
7737;SDS011;29398;45.328;5.558;2023-11-21T04:36:49;9.75;;;5.28;;
7737;SDS011;29398;45.328;5.558;2023-11-21T04:37:51;9.48;;;5.50;;
7737;SDS011;29398;45.328;5.558;2023-11-21T04:38:53;10.15;;;5.88;;
7737;SDS011;29398;45.328;5.558;2023-11-21T04:39:55;10.82;;;5.65;;
7737;SDS011;29398;45.328;5.558;2023-11-21T04:40:56;9.50;;;5.85;;
7737;SDS011;29398;45.328;5.558;2023-11-21T04:41:58;10.15;;;6.45;;
7737;SDS011;29398;45.328;5.558;2023-11-21T04:43:00;10.13;;;6.32;;
7737;SDS011;29398;45.328;5.558;2023-11-21T04:44:04;11.88;;;6.43;;
7737;SDS011;29398;45.328;5.558;2023-11-21T04:45:06;8.23;;;6.07;;
7737;SDS011;29398;45.328;5.558;2023-11-21T04:46:11;12.32;;;6.40;;
7737;SDS011;29398;45.328;5.558;2023-11-21T04:47:12;9.10;;;5.85;;
7737;SDS011;29398;45.328;5.558;2023-11-21T04:48:14;11.27;;;6.30;;
7737;SDS011;29398;45.328;5.558;2023-11-21T04:49:15;9.27;;;6.05;;
7737;SDS011;29398;45.328;5.558;2023-11-21T04:50:17;11.70;;;5.75;;
7737;SDS011;29398;45.328;5.558;2023-11-21T04:51:18;11.13;;;5.97;;
7737;SDS011;29398;45.328;5.558;2023-11-21T04:52:20;10.38;;;5.90;;
7737;SDS011;29398;45.328;5.558;2023-11-21T04:53:21;8.18;;;5.50;;
7737;SDS011;29398;45.328;5.558;2023-11-21T04:54:23;12.48;;;6.00;;
7737;SDS011;29398;45.328;5.558;2023-11-21T04:55:24;9.32;;;5.40;;
7737;SDS011;29398;45.328;5.558;2023-11-21T04:56:28;9.40;;;5.75;;
7737;SDS011;29398;45.328;5.558;2023-11-21T04:57:29;9.15;;;4.93;;
7737;SDS011;29398;45.328;5.558;2023-11-21T04:58:32;8.95;;;5.20;;
7737;SDS011;29398;45.328;5.558;2023-11-21T04:59:33;10.10;;;5.60;;
7737;SDS011;29398;45.328;5.558;2023-11-21T05:00:35;9.20;;;5.38;;
7737;SDS011;29398;45.328;5.558;2023-11-21T05:01:36;8.75;;;4.55;;
7737;SDS011;29398;45.328;5.558;2023-11-21T05:02:39;9.38;;;5.80;;
7737;SDS011;29398;45.328;5.558;2023-11-21T05:03:41;9.18;;;4.93;;
7737;SDS011;29398;45.328;5.558;2023-11-21T05:04:43;10.25;;;4.85;;
7737;SDS011;29398;45.328;5.558;2023-11-21T05:05:44;8.30;;;4.78;;
7737;SDS011;29398;45.328;5.558;2023-11-21T05:06:46;9.38;;;5.20;;
7737;SDS011;29398;45.328;5.558;2023-11-21T05:07:48;9.00;;;4.93;;
7737;SDS011;29398;45.328;5.558;2023-11-21T05:08:50;9.05;;;4.82;;
7737;SDS011;29398;45.328;5.558;2023-11-21T05:09:51;10.90;;;5.40;;
7737;SDS011;29398;45.328;5.558;2023-11-21T05:10:52;8.35;;;5.00;;
7737;SDS011;29398;45.328;5.558;2023-11-21T05:11:54;9.70;;;5.05;;
7737;SDS011;29398;45.328;5.558;2023-11-21T05:12:55;7.50;;;5.10;;
7737;SDS011;29398;45.328;5.558;2023-11-21T05:14:00;8.50;;;5.60;;
7737;SDS011;29398;45.328;5.558;2023-11-21T05:15:01;9.48;;;5.28;;
7737;SDS011;29398;45.328;5.558;2023-11-21T05:16:09;10.00;;;5.22;;
7737;SDS011;29398;45.328;5.558;2023-11-21T05:17:10;8.07;;;5.32;;
7737;SDS011;29398;45.328;5.558;2023-11-21T05:18:12;9.63;;;5.32;;
7737;SDS011;29398;45.328;5.558;2023-11-21T05:19:14;9.00;;;5.43;;
7737;SDS011;29398;45.328;5.558;2023-11-21T05:20:16;8.50;;;5.25;;
7737;SDS011;29398;45.328;5.558;2023-11-21T05:21:21;11.73;;;5.43;;
7737;SDS011;29398;45.328;5.558;2023-11-21T05:22:23;9.27;;;4.70;;
7737;SDS011;29398;45.328;5.558;2023-11-21T05:23:25;8.45;;;4.80;;
7737;SDS011;29398;45.328;5.558;2023-11-21T05:24:27;7.30;;;4.50;;
7737;SDS011;29398;45.328;5.558;2023-11-21T05:25:28;10.43;;;5.43;;
7737;SDS011;29398;45.328;5.558;2023-11-21T05:26:30;12.00;;;5.93;;
7737;SDS011;29398;45.328;5.558;2023-11-21T05:27:31;7.28;;;5.43;;
7737;SDS011;29398;45.328;5.558;2023-11-21T05:28:33;8.32;;;5.32;;
7737;SDS011;29398;45.328;5.558;2023-11-21T05:29:36;6.97;;;4.85;;
7737;SDS011;29398;45.328;5.558;2023-11-21T05:30:38;8.20;;;5.50;;
7737;SDS011;29398;45.328;5.558;2023-11-21T05:31:39;8.98;;;5.45;;
7737;SDS011;29398;45.328;5.558;2023-11-21T05:32:41;9.88;;;5.22;;
7737;SDS011;29398;45.328;5.558;2023-11-21T05:33:43;7.78;;;4.93;;
7737;SDS011;29398;45.328;5.558;2023-11-21T05:34:44;8.10;;;5.22;;
7737;SDS011;29398;45.328;5.558;2023-11-21T05:35:46;6.93;;;4.65;;
7737;SDS011;29398;45.328;5.558;2023-11-21T05:36:48;9.93;;;5.38;;
7737;SDS011;29398;45.328;5.558;2023-11-21T05:37:50;11.55;;;5.68;;
7737;SDS011;29398;45.328;5.558;2023-11-21T05:38:51;10.10;;;5.70;;
7737;SDS011;29398;45.328;5.558;2023-11-21T05:39:53;8.38;;;5.50;;
7737;SDS011;29398;45.328;5.558;2023-11-21T05:40:56;8.30;;;4.82;;
7737;SDS011;29398;45.328;5.558;2023-11-21T05:41:58;9.40;;;5.35;;
7737;SDS011;29398;45.328;5.558;2023-11-21T05:43:01;9.50;;;5.45;;
7737;SDS011;29398;45.328;5.558;2023-11-21T05:44:02;7.95;;;4.72;;
7737;SDS011;29398;45.328;5.558;2023-11-21T05:45:06;11.35;;;5.40;;
7737;SDS011;29398;45.328;5.558;2023-11-21T05:46:10;11.43;;;5.18;;
7737;SDS011;29398;45.328;5.558;2023-11-21T05:47:13;7.78;;;4.82;;
7737;SDS011;29398;45.328;5.558;2023-11-21T05:48:14;6.93;;;4.35;;
7737;SDS011;29398;45.328;5.558;2023-11-21T05:49:16;9.27;;;4.38;;
7737;SDS011;29398;45.328;5.558;2023-11-21T05:50:18;7.57;;;4.32;;
7737;SDS011;29398;45.328;5.558;2023-11-21T05:51:20;5.88;;;3.95;;
7737;SDS011;29398;45.328;5.558;2023-11-21T05:52:21;9.68;;;4.15;;
7737;SDS011;29398;45.328;5.558;2023-11-21T05:53:23;8.40;;;4.43;;
7737;SDS011;29398;45.328;5.558;2023-11-21T05:54:24;9.85;;;4.25;;
7737;SDS011;29398;45.328;5.558;2023-11-21T05:55:26;5.93;;;4.00;;
7737;SDS011;29398;45.328;5.558;2023-11-21T05:56:27;9.55;;;4.13;;
7737;SDS011;29398;45.328;5.558;2023-11-21T05:57:29;6.05;;;4.43;;
7737;SDS011;29398;45.328;5.558;2023-11-21T05:58:30;10.27;;;5.47;;
7737;SDS011;29398;45.328;5.558;2023-11-21T05:59:32;10.32;;;5.40;;
7737;SDS011;29398;45.328;5.558;2023-11-21T06:00:35;7.82;;;5.32;;
7737;SDS011;29398;45.328;5.558;2023-11-21T06:01:38;6.88;;;4.72;;
7737;SDS011;29398;45.328;5.558;2023-11-21T06:02:39;8.52;;;5.15;;
7737;SDS011;29398;45.328;5.558;2023-11-21T06:03:40;9.65;;;6.63;;
7737;SDS011;29398;45.328;5.558;2023-11-21T06:04:46;8.68;;;7.50;;
7737;SDS011;29398;45.328;5.558;2023-11-21T06:05:47;10.23;;;6.70;;
7737;SDS011;29398;45.328;5.558;2023-11-21T06:06:50;10.05;;;6.15;;
7737;SDS011;29398;45.328;5.558;2023-11-21T06:07:51;9.73;;;7.32;;
7737;SDS011;29398;45.328;5.558;2023-11-21T06:08:53;21.85;;;14.75;;
7737;SDS011;29398;45.328;5.558;2023-11-21T06:09:55;24.58;;;16.88;;
7737;SDS011;29398;45.328;5.558;2023-11-21T06:10:56;16.67;;;9.55;;
7737;SDS011;29398;45.328;5.558;2023-11-21T06:11:58;25.48;;;12.98;;
7737;SDS011;29398;45.328;5.558;2023-11-21T06:12:59;21.40;;;11.57;;
7737;SDS011;29398;45.328;5.558;2023-11-21T06:14:03;15.35;;;9.13;;
7737;SDS011;29398;45.328;5.558;2023-11-21T06:15:04;25.88;;;12.88;;
7737;SDS011;29398;45.328;5.558;2023-11-21T06:16:10;133.80;;;52.55;;
7737;SDS011;29398;45.328;5.558;2023-11-21T06:17:14;314.58;;;119.97;;